Time;durP1;ratioP1;P1;durP2;ratioP2;P2;SDS_P1;SDS_P2;PMS_P1;PMS_P2;Temp;Humidity;BMP_temperature;BMP_pressure;BME280_temperature;BME280_humidity;BME280_pressure;Samples;Min_cycle;Max_cycle;Signal;HPM_P1;HPM_P2
2021/11/16 00:02:15;;;;;;;0.68;0.68;;;2.50;99.90;;;;;;5092690;28;20375;-70
2021/11/16 00:04:41;;;;;;;0.70;0.70;;;2.50;99.90;;;;;;5092934;28;20031;-70
2021/11/16 00:07:09;;;;;;;0.70;0.70;;;2.50;99.90;;;;;;5092505;28;20387;-70
2021/11/16 00:09:35;;;;;;;1.05;0.70;;;2.50;99.90;;;;;;5092417;28;20107;-70
2021/11/16 00:12:01;;;;;;;0.50;0.50;;;2.50;99.90;;;;;;5092595;28;20578;-70
2021/11/16 00:14:29;;;;;;;0.65;0.65;;;2.50;99.90;;;;;;5092520;28;20024;-70
2021/11/16 00:16:56;;;;;;;0.60;0.60;;;2.50;99.90;;;;;;5092317;28;20544;-70
2021/11/16 00:19:21;;;;;;;0.70;0.70;;;2.50;99.90;;;;;;5092640;28;20373;-70
2021/11/16 00:21:49;;;;;;;0.60;0.60;;;2.50;99.90;;;;;;5092534;28;20032;-70
2021/11/16 00:24:18;;;;;;;0.65;0.65;;;2.60;99.90;;;;;;5092573;28;20031;-70
2021/11/16 00:26:45;;;;;;;0.60;0.60;;;2.60;99.90;;;;;;5092323;28;20557;-70
2021/11/16 00:29:11;;;;;;;0.70;0.70;;;2.60;99.90;;;;;;5092216;28;20028;-70
2021/11/16 00:31:36;;;;;;;1.02;0.70;;;2.60;99.90;;;;;;5092286;28;20057;-70
2021/11/16 00:34:03;;;;;;;0.80;0.80;;;2.60;99.90;;;;;;5092282;28;20020;-69
2021/11/16 00:36:31;;;;;;;0.60;0.60;;;2.60;99.90;;;;;;5092499;28;20356;-70
2021/11/16 00:38:57;;;;;;;0.73;0.60;;;2.60;99.90;;;;;;5091951;28;20517;-69
2021/11/16 00:41:23;;;;;;;0.70;0.70;;;2.60;99.90;;;;;;5092146;28;20039;-70
2021/11/16 00:43:50;;;;;;;0.80;0.80;;;2.70;99.90;;;;;;5092334;28;20375;-70
2021/11/16 00:46:16;;;;;;;0.70;0.70;;;2.70;99.90;;;;;;5092077;28;20032;-70
2021/11/16 00:48:42;;;;;;;0.70;0.70;;;2.70;99.90;;;;;;5092036;28;20103;-70
2021/11/16 00:51:09;;;;;;;0.63;0.63;;;2.70;99.90;;;;;;5092109;28;20091;-70
2021/11/16 00:53:37;;;;;;;1.05;0.90;;;2.70;99.90;;;;;;5092279;28;20081;-70
2021/11/16 00:56:05;;;;;;;0.50;0.50;;;2.70;99.90;;;;;;5091734;28;20023;-70
2021/11/16 00:58:31;;;;;;;0.60;0.60;;;2.70;99.90;;;;;;5092258;28;20031;-70
2021/11/16 01:00:58;;;;;;;0.50;0.50;;;2.70;99.90;;;;;;5091684;28;20032;-70
2021/11/16 01:03:24;;;;;;;0.65;0.65;;;2.70;99.90;;;;;;5091998;28;20028;-70
2021/11/16 01:05:52;;;;;;;0.68;0.68;;;2.70;99.90;;;;;;5091619;28;20040;-70
2021/11/16 01:08:18;;;;;;;0.60;0.60;;;2.70;99.90;;;;;;5091856;28;20055;-71
2021/11/16 01:10:45;;;;;;;0.50;0.50;;;2.70;99.90;;;;;;5092053;28;20060;-70
2021/11/16 01:13:12;;;;;;;0.80;0.80;;;2.70;99.90;;;;;;5090452;28;20442;-70
2021/11/16 01:15:40;;;;;;;0.60;0.60;;;2.70;99.90;;;;;;5091858;28;20062;-70
2021/11/16 01:18:06;;;;;;;0.70;0.70;;;2.80;99.90;;;;;;5091625;28;20055;-70
2021/11/16 01:20:33;;;;;;;0.60;0.60;;;2.80;99.90;;;;;;5091626;28;20063;-70
2021/11/16 01:23:00;;;;;;;0.60;0.60;;;2.80;99.90;;;;;;5094109;28;20028;-70
2021/11/16 01:25:26;;;;;;;1.27;0.77;;;2.80;99.90;;;;;;5095687;28;20028;-70
2021/11/16 01:28:00;;;;;;;0.60;0.60;;;2.80;99.90;;;;;;5095747;28;20017;-70
2021/11/16 01:30:27;;;;;;;0.73;0.73;;;2.80;99.90;;;;;;5095639;28;20028;-70
2021/11/16 01:33:09;;;;;;;0.65;0.60;;;2.80;99.90;;;;;;5095300;28;20066;-70
2021/11/16 01:35:37;;;;;;;0.60;0.60;;;2.80;99.90;;;;;;5095844;28;20387;-70
2021/11/16 01:38:08;;;;;;;0.68;0.68;;;2.80;99.90;;;;;;5095500;28;20027;-70
2021/11/16 01:40:34;;;;;;;0.60;0.60;;;2.80;99.90;;;;;;5095152;28;20119;-70
2021/11/16 01:43:03;;;;;;;0.65;0.65;;;2.90;99.90;;;;;;5095408;28;20024;-70
2021/11/16 01:45:29;;;;;;;0.95;0.70;;;2.90;99.90;;;;;;5095612;28;20032;-70
2021/11/16 01:47:55;;;;;;;0.50;0.50;;;2.80;99.90;;;;;;5095078;28;20543;-71
2021/11/16 01:50:22;;;;;;;1.15;0.88;;;2.90;99.90;;;;;;5095496;28;20098;-71
2021/11/16 01:52:49;;;;;;;0.70;0.70;;;2.90;99.90;;;;;;5095250;28;20020;-70
2021/11/16 01:55:18;;;;;;;0.50;0.50;;;2.90;99.90;;;;;;5093784;28;20063;-70
2021/11/16 01:57:43;;;;;;;0.65;0.65;;;2.90;99.90;;;;;;5095364;28;20380;-70
2021/11/16 02:00:17;;;;;;;0.63;0.63;;;2.90;99.90;;;;;;5094849;28;20039;-70
2021/11/16 02:02:43;;;;;;;0.60;0.60;;;2.90;99.90;;;;;;5094986;28;20490;-70
2021/11/16 02:05:10;;;;;;;0.68;0.68;;;2.90;99.90;;;;;;5094865;28;20031;-70
2021/11/16 02:07:41;;;;;;;0.60;0.60;;;3.00;99.90;;;;;;5095137;28;20024;-70
2021/11/16 02:10:07;;;;;;;;;;;3.00;99.90;;;;;;5095430;28;20031;-70
2021/11/16 02:12:32;;;;;;;0.50;0.50;;;3.00;99.90;;;;;;5094710;28;19995;-70
2021/11/16 02:14:58;;;;;;;0.70;0.70;;;3.00;99.90;;;;;;5094631;28;20024;-71
2021/11/16 02:17:24;;;;;;;0.70;0.70;;;3.00;99.90;;;;;;5094657;28;20020;-71
2021/11/16 02:19:50;;;;;;;0.63;0.60;;;3.00;99.90;;;;;;5094591;28;20028;-71
2021/11/16 02:22:17;;;;;;;0.60;0.60;;;3.00;99.90;;;;;;5094399;28;20035;-75
2021/11/16 02:56:12;;;;;;;0.60;0.60;;;3.20;99.90;;;;;;5093246;28;20086;-74
2021/11/16 02:58:38;;;;;;;0.52;0.52;;;3.20;99.90;;;;;;5093912;28;20032;-75
2021/11/16 03:01:14;;;;;;;0.50;0.50;;;3.20;99.90;;;;;;5093635;28;20039;-75
2021/11/16 03:03:40;;;;;;;0.50;0.50;;;3.30;99.90;;;;;;5093817;28;20031;-75
2021/11/16 03:06:07;;;;;;;2.63;0.70;;;3.30;99.90;;;;;;5093877;28;20021;-74
2021/11/16 03:08:35;;;;;;;0.60;0.60;;;3.30;99.90;;;;;;5093689;28;20020;-74
2021/11/16 03:11:07;;;;;;;0.70;0.70;;;3.30;99.90;;;;;;5093595;28;20032;-74
2021/11/16 03:13:37;;;;;;;0.60;0.60;;;3.30;99.90;;;;;;5094016;28;20066;-75
2021/11/16 03:16:23;;;;;;;0.60;0.60;;;3.30;99.90;;;;;;5093557;28;20484;-74
2021/11/16 03:18:53;;;;;;;0.70;0.70;;;3.30;99.90;;;;;;5093609;28;20035;-74
2021/11/16 03:21:22;;;;;;;0.60;0.60;;;3.40;99.90;;;;;;5093575;28;20480;-74
2021/11/16 03:23:50;;;;;;;1.27;0.60;;;3.30;99.90;;;;;;5093856;28;20028;-74
2021/11/16 03:26:19;;;;;;;0.50;0.50;;;3.40;99.90;;;;;;5093567;28;20052;-74
2021/11/16 03:28:49;;;;;;;0.50;0.50;;;3.40;99.90;;;;;;5093660;28;20028;-74
2021/11/16 03:31:38;;;;;;;0.60;0.60;;;3.40;99.90;;;;;;5093180;28;20024;-74
2021/11/16 03:34:04;;;;;;;0.70;0.70;;;3.40;99.90;;;;;;5093245;28;20048;-75
2021/11/16 03:36:31;;;;;;;1.83;1.73;;;3.50;99.90;;;;;;5093245;28;20077;-74
2021/11/16 03:38:58;;;;;;;2.13;0.70;;;3.50;99.90;;;;;;5093077;28;20023;-74
2021/11/16 03:41:24;;;;;;;1.77;0.60;;;3.50;99.90;;;;;;5092746;28;20039;-75
2021/11/16 03:43:51;;;;;;;0.50;0.50;;;3.50;99.90;;;;;;5092878;28;20036;-75
2021/11/16 03:46:18;;;;;;;0.70;0.70;;;3.50;99.90;;;;;;5092437;28;20032;-75
2021/11/16 03:48:44;;;;;;;1.05;0.60;;;3.50;99.90;;;;;;5093164;28;20024;-75
2021/11/16 03:51:10;;;;;;;0.57;0.55;;;3.50;99.90;;;;;;5092999;28;20024;-75
2021/11/16 03:53:36;;;;;;;0.60;0.60;;;3.60;99.90;;;;;;5093050;28;20433;-76
2021/11/16 03:56:03;;;;;;;2.17;0.75;;;3.50;99.90;;;;;;5092539;28;20040;-78
2021/11/16 03:58:28;;;;;;;1.63;0.70;;;3.60;99.90;;;;;;5092460;28;20563;-78
2021/11/16 04:01:04;;;;;;;0.65;0.50;;;3.60;99.90;;;;;;5092872;28;20032;-78
2021/11/16 04:03:32;;;;;;;0.75;0.50;;;3.60;99.90;;;;;;5091406;28;20059;-78
2021/11/16 04:05:59;;;;;;;0.60;0.60;;;3.60;99.90;;;;;;5092880;28;20035;-78
2021/11/16 04:08:25;;;;;;;1.50;0.70;;;3.60;99.90;;;;;;5092736;28;20455;-78
2021/11/16 04:10:52;;;;;;;0.70;0.70;;;3.60;99.90;;;;;;5092581;28;20522;-78
2021/11/16 04:13:18;;;;;;;0.80;0.60;;;3.60;99.90;;;;;;5092691;28;20021;-78
2021/11/16 04:15:46;;;;;;;0.70;0.70;;;3.60;99.90;;;;;;5092563;28;20077;-78
2021/11/16 04:18:12;;;;;;;0.60;0.60;;;3.60;99.90;;;;;;5092234;28;20531;-77
2021/11/16 04:20:42;;;;;;;0.93;0.60;;;3.60;99.90;;;;;;5092364;28;20048;-77
2021/11/16 04:23:11;;;;;;;0.85;0.70;;;3.70;99.90;;;;;;5092399;28;20069;-77
2021/11/16 04:25:38;;;;;;;1.65;0.70;;;3.70;99.90;;;;;;5092684;28;20030;-77
2021/11/16 04:28:06;;;;;;;1.05;0.70;;;3.70;99.90;;;;;;5092483;28;20032;-77
2021/11/16 04:30:32;;;;;;;2.33;0.90;;;3.70;99.90;;;;;;5092404;28;20028;-78
2021/11/16 04:33:00;;;;;;;0.93;0.80;;;3.70;99.90;;;;;;5092178;28;20020;-77
2021/11/16 04:35:28;;;;;;;1.05;0.65;;;3.70;99.90;;;;;;5092419;28;20035;-79
2021/11/16 04:37:56;;;;;;;1.67;0.70;;;3.70;99.90;;;;;;5092503;28;20043;-78
2021/11/16 04:40:31;;;;;;;0.82;0.77;;;3.80;99.90;;;;;;5092025;28;20496;-73
2021/11/16 04:42:58;;;;;;;0.80;0.80;;;3.80;99.90;;;;;;5092198;28;20040;-73
2021/11/16 04:45:25;;;;;;;0.70;0.70;;;3.80;99.90;;;;;;5092082;28;20069;-73
2021/11/16 04:48:04;;;;;;;0.90;0.77;;;3.80;99.90;;;;;;5092411;28;20028;-73
2021/11/16 04:55:50;;;;;;;0.77;0.68;;;3.70;99.90;;;;;;5092403;28;20075;-73
2021/11/16 05:04:05;;;;;;;1.15;0.80;;;3.80;99.90;;;;;;5064528;28;20050;-74
2021/11/16 05:06:31;;;;;;;1.10;0.73;;;3.80;99.90;;;;;;5095862;28;20047;-73
2021/11/16 05:08:56;;;;;;;1.67;1.00;;;3.80;99.90;;;;;;5095956;28;20027;-74
2021/11/16 05:11:25;;;;;;;1.30;0.60;;;3.80;99.90;;;;;;5096066;28;20074;-74
2021/11/16 05:13:51;;;;;;;2.35;0.80;;;3.80;99.90;;;;;;5096069;28;20119;-74
2021/11/16 05:16:21;;;;;;;0.90;0.70;;;3.80;99.90;;;;;;5095647;28;20028;-76
2021/11/16 05:18:47;;;;;;;3.00;0.80;;;3.80;99.90;;;;;;5095987;28;20035;-76
2021/11/16 05:21:14;;;;;;;1.35;0.75;;;3.80;99.90;;;;;;5095816;28;20035;-76
2021/11/16 05:23:54;;;;;;;1.75;0.82;;;3.80;99.90;;;;;;5095803;28;20058;-78
2021/11/16 05:26:21;;;;;;;0.70;0.70;;;3.80;99.90;;;;;;5095508;28;20043;-77
2021/11/16 05:28:47;;;;;;;2.00;0.70;;;3.80;99.90;;;;;;5094215;28;20016;-77
2021/11/16 05:31:17;;;;;;;0.80;0.70;;;3.80;99.90;;;;;;5095603;28;20032;-72
2021/11/16 05:33:44;;;;;;;1.15;0.73;;;3.80;99.90;;;;;;5095358;28;20480;-73
2021/11/16 05:36:11;;;;;;;1.42;0.70;;;3.80;99.90;;;;;;5095615;28;20040;-79
2021/11/16 05:38:39;;;;;;;1.00;0.75;;;3.90;99.90;;;;;;5095048;28;20027;-70
2021/11/16 05:41:06;;;;;;;1.95;0.60;;;3.90;99.90;;;;;;5095143;28;20492;-74
2021/11/16 05:43:33;;;;;;;0.70;0.60;;;4.80;99.90;;;;;;5094959;28;20016;-71
2021/11/16 05:45:59;;;;;;;1.38;0.70;;;6.20;99.90;;;;;;5094628;28;20080;-71
2021/11/16 05:48:35;;;;;;;1.27;0.80;;;6.10;99.90;;;;;;5094982;28;20138;-70
2021/11/16 05:51:02;;;;;;;1.48;0.70;;;5.60;99.90;;;;;;5097326;28;20093;-70
2021/11/16 05:53:29;;;;;;;1.88;0.80;;;5.20;99.90;;;;;;5104319;28;20027;-71
2021/11/16 05:55:55;;;;;;;2.22;0.70;;;5.00;99.90;;;;;;5103338;28;20043;-69
2021/11/16 05:58:22;;;;;;;1.58;0.68;;;4.80;99.90;;;;;;5100179;28;20115;-69
2021/11/16 06:00:49;;;;;;;2.83;0.80;;;4.60;99.90;;;;;;5104615;27;20090;-68
2021/11/16 06:03:15;;;;;;;6.47;0.80;;;4.50;99.90;;;;;;5113834;28;20020;-68
2021/11/16 06:05:41;;;;;;;5.72;3.08;;;4.50;99.90;;;;;;5103554;28;20052;-68
2021/11/16 06:08:07;;;;;;;4.97;1.40;;;4.40;99.90;;;;;;5103428;28;20016;-68
2021/11/16 06:10:34;;;;;;;5.75;1.08;;;4.40;99.90;;;;;;5105550;28;20096;-68
2021/11/16 06:13:01;;;;;;;2.30;1.13;;;4.40;99.90;;;;;;5102781;28;20028;-70
2021/11/16 06:15:27;;;;;;;2.00;1.00;;;4.30;99.90;;;;;;5104389;28;20028;-68
2021/11/16 06:17:52;;;;;;;3.13;0.88;;;4.40;99.90;;;;;;5104892;28;20020;-68
2021/11/16 06:20:21;;;;;;;2.17;1.17;;;4.30;99.90;;;;;;5105293;28;20035;-67
2021/11/16 06:22:47;;;;;;;3.83;1.00;;;4.30;99.90;;;;;;5097571;28;20028;-68
2021/11/16 06:25:14;;;;;;;2.78;0.93;;;4.30;99.90;;;;;;5094510;28;20097;-67
2021/11/16 06:27:40;;;;;;;6.00;0.98;;;4.30;99.90;;;;;;5092912;28;20383;-68
2021/11/16 06:30:07;;;;;;;1.65;0.93;;;5.00;99.90;;;;;;5094388;28;20027;-68
2021/11/16 06:32:33;;;;;;;3.15;0.98;;;5.30;99.90;;;;;;5094429;28;20049;-68
2021/11/16 06:34:59;;;;;;;3.95;0.93;;;5.10;99.90;;;;;;5094355;28;20028;-68
2021/11/16 06:37:25;;;;;;;1.63;0.98;;;4.90;99.90;;;;;;5094085;28;20021;-66
2021/11/16 06:39:51;;;;;;;2.97;1.48;;;4.70;99.90;;;;;;5094171;28;20036;-66
2021/11/16 06:42:17;;;;;;;2.95;1.02;;;4.60;99.90;;;;;;5094247;28;20036;-67
2021/11/16 06:44:43;;;;;;;2.42;0.85;;;4.60;99.90;;;;;;5094278;28;20028;-68
2021/11/16 06:47:13;;;;;;;2.80;0.88;;;4.50;99.90;;;;;;5092891;28;20024;-67
2021/11/16 06:49:48;;;;;;;4.88;1.13;;;4.50;99.90;;;;;;5094063;28;20048;-69
2021/11/16 06:52:15;;;;;;;5.07;1.25;;;4.50;99.90;;;;;;5094294;28;20023;-69
2021/11/16 06:54:41;;;;;;;4.13;0.75;;;4.50;99.90;;;;;;5093852;28;20048;-70
2021/11/16 06:57:07;;;;;;;3.92;1.00;;;4.50;99.90;;;;;;5093805;28;20020;-73
2021/11/16 06:59:33;;;;;;;2.25;1.00;;;4.50;99.90;;;;;;5093942;28;20024;-71
2021/11/16 07:01:59;;;;;;;4.90;1.10;;;4.50;99.90;;;;;;5093999;28;20054;-71
2021/11/16 07:04:38;;;;;;;4.32;1.05;;;4.50;99.90;;;;;;5093899;28;20023;-70
2021/11/16 07:07:04;;;;;;;4.75;1.33;;;4.50;99.90;;;;;;5093964;28;20044;-71
2021/11/16 07:09:39;;;;;;;4.13;1.00;;;4.50;99.90;;;;;;5093787;28;20038;-65
2021/11/16 07:12:24;;;;;;;4.05;1.42;;;4.80;99.90;;;;;;5093804;28;20024;-65
2021/11/16 07:14:50;;;;;;;2.53;1.42;;;5.20;99.90;;;;;;5102247;28;20028;-64
2021/11/16 07:17:18;;;;;;;3.38;1.13;;;5.00;99.90;;;;;;5102639;28;20113;-64
2021/11/16 07:19:50;;;;;;;8.43;1.42;;;4.80;99.90;;;;;;5101295;28;20036;-64
2021/11/16 07:22:24;;;;;;;2.80;1.13;;;4.70;99.90;;;;;;5104270;28;20023;-65
2021/11/16 07:25:03;;;;;;;2.83;1.10;;;4.60;99.90;;;;;;5101748;28;20031;-65
2021/11/16 07:27:51;;;;;;;2.92;0.93;;;4.60;99.90;;;;;;5101819;28;20490;-65
2021/11/16 07:30:23;;;;;;;3.22;1.02;;;4.50;99.90;;;;;;5111026;28;20540;-65
2021/11/16 07:32:58;;;;;;;5.40;1.17;;;4.50;99.90;;;;;;5112719;28;20036;-67
2021/11/16 07:35:30;;;;;;;2.05;0.80;;;4.50;99.90;;;;;;5112846;28;20098;-66
2021/11/16 07:37:58;;;;;;;8.48;1.00;;;4.50;99.90;;;;;;5113772;28;20057;-66
2021/11/16 07:40:25;;;;;;;6.57;0.95;;;4.50;99.90;;;;;;5113339;28;20391;-66
2021/11/16 07:42:53;;;;;;;4.00;1.00;;;4.60;99.90;;;;;;5113316;28;20525;-66
2021/11/16 07:45:25;;;;;;;2.90;1.02;;;4.60;99.90;;;;;;5104387;28;20426;-66
2021/11/16 07:47:54;;;;;;;5.30;1.08;;;4.60;99.90;;;;;;5111848;28;20145;-67
2021/11/16 07:50:29;;;;;;;11.05;1.83;;;4.60;99.90;;;;;;5116331;27;20114;-67
2021/11/16 07:52:55;;;;;;;6.15;1.48;;;4.90;99.90;;;;;;5111978;28;20596;-68
2021/11/16 07:55:24;;;;;;;4.40;1.02;;;5.70;99.90;;;;;;5111761;28;20051;-67
2021/11/16 07:57:51;;;;;;;5.50;1.33;;;6.20;99.90;;;;;;5104683;28;20381;-67
2021/11/16 08:00:22;;;;;;;4.30;1.50;;;6.50;99.90;;;;;;5109194;28;20031;-68
2021/11/16 08:02:54;;;;;;;3.45;0.90;;;6.70;99.90;;;;;;5112746;28;20144;-67
2021/11/16 08:10:49;;;;;;;3.42;0.98;;;7.20;99.90;;;;;;5112375;28;20053;-68
2021/11/16 08:13:19;;;;;;;2.40;0.93;;;7.30;99.90;;;;;;5112190;28;20023;-68
2021/11/16 08:15:45;;;;;;;4.68;1.30;;;7.40;99.90;;;;;;5101815;28;20039;-68
2021/11/16 08:18:15;;;;;;;7.22;1.15;;;7.50;99.90;;;;;;5102448;28;20016;-68
2021/11/16 08:20:44;;;;;;;3.10;1.30;;;7.60;99.90;;;;;;5103768;28;20044;-68
2021/11/16 08:23:10;;;;;;;3.58;1.25;;;7.60;99.90;;;;;;5096400;28;20479;-68
2021/11/16 08:25:38;;;;;;;4.95;0.98;;;7.60;99.90;;;;;;5090954;28;20050;-68
2021/11/16 08:28:08;;;;;;;4.65;1.30;;;7.70;99.90;;;;;;5092482;28;20040;-69
2021/11/16 08:30:35;;;;;;;4.00;1.50;;;7.80;99.90;;;;;;5091636;28;20501;-71
2021/11/16 08:33:05;;;;;;;4.88;1.42;;;7.90;99.90;;;;;;5092322;28;20357;-69
2021/11/16 08:35:32;;;;;;;4.25;1.50;;;8.80;99.90;;;;;;5092061;28;20081;-69
2021/11/16 08:38:11;;;;;;;5.95;1.40;;;8.70;99.90;;;;;;5092379;28;20024;-69
2021/11/16 08:40:38;;;;;;;7.43;1.83;;;8.60;99.90;;;;;;5092246;28;20043;-69
2021/11/16 08:43:16;;;;;;;4.82;1.17;;;8.40;99.90;;;;;;5091813;28;20043;-69
2021/11/16 08:45:50;;;;;;;3.85;1.33;;;8.40;99.90;;;;;;5092029;28;20035;-69
2021/11/16 08:48:22;;;;;;;5.75;1.08;;;8.40;99.90;;;;;;5094961;28;20035;-69
2021/11/16 08:51:11;;;;;;;6.05;1.40;;;8.40;99.90;;;;;;5096256;28;20039;-69
2021/11/16 08:53:40;;;;;;;4.47;1.25;;;8.30;99.90;;;;;;5111080;28;20479;-68
2021/11/16 08:56:17;;;;;;;4.05;1.17;;;8.30;99.90;;;;;;5105895;28;20484;-69
2021/11/16 08:58:43;;;;;;;5.07;1.20;;;8.30;99.90;;;;;;5112423;28;20110;-68
2021/11/16 09:01:11;;;;;;;3.15;0.98;;;8.30;99.90;;;;;;5112343;28;20566;-68
2021/11/16 09:03:47;;;;;;;4.80;1.40;;;8.20;99.90;;;;;;5112311;28;20102;-69
2021/11/16 09:06:25;;;;;;;4.68;1.17;;;8.20;99.90;;;;;;5112462;28;20030;-68
2021/11/16 09:09:11;;;;;;;6.68;1.25;;;8.20;99.90;;;;;;5106125;28;20101;-65
2021/11/16 09:11:37;;;;;;;2.97;1.20;;;8.20;99.90;;;;;;5103964;28;20024;-65
2021/11/16 09:14:11;;;;;;;3.20;1.23;;;7.80;99.90;;;;;;5096829;28;20031;-65
2021/11/16 09:16:39;;;;;;;3.10;1.27;;;7.40;99.90;;;;;;5094750;28;20475;-65
2021/11/16 09:19:05;;;;;;;6.78;1.30;;;7.60;99.90;;;;;;5111884;28;20510;-66
2021/11/16 09:21:39;;;;;;;4.00;1.13;;;7.50;99.90;;;;;;5105481;28;20484;-65
2021/11/16 09:24:08;;;;;;;4.47;1.10;;;7.10;99.90;;;;;;5100731;28;20028;-65
2021/11/16 09:26:48;;;;;;;3.17;1.33;;;6.80;99.90;;;;;;5101611;28;20019;-65
2021/11/16 09:29:21;;;;;;;4.88;1.45;;;6.60;99.90;;;;;;5091196;28;20016;-65
2021/11/16 09:31:49;;;;;;;6.07;1.27;;;6.40;99.90;;;;;;5091461;28;20086;-66
2021/11/16 09:34:18;;;;;;;2.67;0.95;;;6.30;99.90;;;;;;5090355;28;20059;-68
2021/11/16 09:36:59;;;;;;;4.18;1.30;;;6.20;99.90;;;;;;5090576;28;20674;-68
2021/11/16 09:39:30;;;;;;;7.72;1.48;;;6.10;99.90;;;;;;5091656;28;20028;-67
2021/11/16 09:41:55;;;;;;;;;;;6.00;99.90;;;;;;5091998;28;20494;-67
2021/11/16 09:44:31;;;;;;;6.07;1.60;;;6.00;99.90;;;;;;5094721;28;19965;-67
2021/11/16 09:46:59;;;;;;;7.30;1.30;;;6.00;99.90;;;;;;5095151;28;20073;-67
2021/11/16 09:49:29;;;;;;;6.05;1.25;;;6.00;99.90;;;;;;5095314;28;20043;-67
2021/11/16 09:51:59;;;;;;;6.97;1.33;;;5.90;99.90;;;;;;5095055;28;20028;-68
2021/11/16 09:54:25;;;;;;;3.85;1.20;;;5.80;99.90;;;;;;5095128;28;20032;-68
2021/11/16 09:57:13;;;;;;;4.47;1.25;;;5.80;99.90;;;;;;5095041;28;20452;-68
2021/11/16 09:59:42;;;;;;;5.15;1.25;;;5.80;99.90;;;;;;5094700;28;20031;-67
2021/11/16 10:02:16;;;;;;;5.03;1.15;;;5.80;99.90;;;;;;5093703;28;20043;-67
2021/11/16 10:04:48;;;;;;;5.20;1.42;;;5.70;99.90;;;;;;5094843;28;20028;-67
2021/11/16 10:07:14;;;;;;;5.72;1.50;;;5.70;99.90;;;;;;5094958;28;20032;-67
2021/11/16 10:09:42;;;;;;;5.25;1.15;;;5.70;99.90;;;;;;5094736;28;20225;-67
2021/11/16 10:12:09;;;;;;;8.85;1.55;;;5.70;99.90;;;;;;5094835;28;20065;-67
2021/11/16 10:14:35;;;;;;;4.80;1.33;;;5.70;99.90;;;;;;5094578;28;20373;-67
2021/11/16 10:17:01;;;;;;;6.30;1.40;;;5.70;99.90;;;;;;5094636;28;20475;-67
2021/11/16 10:19:27;;;;;;;7.03;1.45;;;5.60;99.90;;;;;;5094704;28;20031;-67
2021/11/16 10:21:52;;;;;;;3.83;1.00;;;5.70;99.90;;;;;;5094436;28;20043;-67
2021/11/16 10:24:26;;;;;;;3.55;1.08;;;5.70;99.90;;;;;;5096301;28;20034;-67
2021/11/16 10:26:58;;;;;;;4.75;1.10;;;5.60;99.90;;;;;;5094390;28;20025;-68
2021/11/16 10:29:24;;;;;;;4.35;1.30;;;5.50;99.90;;;;;;5094151;28;20380;-68
2021/11/16 10:31:50;;;;;;;4.25;0.93;;;5.50;99.90;;;;;;5094179;28;20035;-68
2021/11/16 10:34:16;;;;;;;2.72;1.17;;;5.50;99.90;;;;;;5094280;28;20028;-66
2021/11/16 10:36:43;;;;;;;2.97;1.00;;;5.50;99.90;;;;;;5094256;28;20025;-66
2021/11/16 10:39:09;;;;;;;2.72;1.00;;;5.50;99.90;;;;;;5094177;28;20039;-66
2021/11/16 10:41:37;;;;;;;4.90;1.02;;;5.60;99.90;;;;;;5093900;28;20395;-66
2021/11/16 10:44:07;;;;;;;6.25;1.40;;;5.60;99.90;;;;;;5094296;28;20028;-66
2021/11/16 10:46:37;;;;;;;3.78;1.10;;;5.60;99.90;;;;;;5094134;28;20024;-66
2021/11/16 10:49:10;;;;;;;2.58;1.33;;;5.60;99.90;;;;;;5093677;28;20093;-66
2021/11/16 10:51:37;;;;;;;3.65;0.93;;;5.60;99.90;;;;;;5092332;28;20399;-66
2021/11/16 10:54:04;;;;;;;5.63;1.40;;;5.60;99.90;;;;;;5093998;28;20048;-66
2021/11/16 10:56:34;;;;;;;2.50;0.90;;;5.70;99.90;;;;;;5093887;28;20048;-66
2021/11/16 10:59:07;;;;;;;5.88;1.02;;;5.60;99.90;;;;;;5093650;28;20062;-66
2021/11/16 11:01:46;;;;;;;3.17;1.08;;;5.60;99.90;;;;;;5093606;28;20027;-67
2021/11/16 11:04:20;;;;;;;2.08;0.88;;;5.60;99.90;;;;;;5093775;28;20076;-66
2021/11/16 11:06:49;;;;;;;4.05;1.05;;;5.70;99.90;;;;;;5093575;28;20035;-66
2021/11/16 11:09:18;;;;;;;3.63;0.80;;;5.70;99.90;;;;;;5093942;28;20107;-66
2021/11/16 11:11:49;;;;;;;2.42;0.73;;;5.70;99.90;;;;;;5093509;28;20016;-66
2021/11/16 11:14:17;;;;;;;1.02;0.80;;;5.70;99.90;;;;;;5093484;28;20039;-66
2021/11/16 11:16:54;;;;;;;1.83;0.90;;;5.70;99.90;;;;;;5093382;28;20391;-66
2021/11/16 11:19:26;;;;;;;1.33;0.88;;;5.70;99.90;;;;;;5093745;28;20028;-66
2021/11/16 11:22:03;;;;;;;1.45;0.80;;;5.60;99.90;;;;;;5093246;28;20118;-66
2021/11/16 11:25:08;;;;;;;1.85;0.98;;;5.70;99.90;;;;;;5093402;28;20023;-66
2021/11/16 11:30:17;;;;;;;3.63;0.90;;;5.70;99.90;;;;;;5061746;28;20081;-66
2021/11/16 11:32:45;;;;;;;3.97;1.08;;;5.60;99.90;;;;;;5093468;28;20055;-66
2021/11/16 11:35:24;;;;;;;4.40;1.20;;;5.60;99.90;;;;;;5093158;28;20024;-66
2021/11/16 11:37:53;;;;;;;6.13;1.00;;;5.60;99.90;;;;;;5093001;28;20032;-68
2021/11/16 11:40:20;;;;;;;8.82;1.63;;;5.60;99.90;;;;;;5092922;28;20035;-66
2021/11/16 11:42:52;;;;;;;6.88;1.63;;;5.60;99.90;;;;;;5092905;28;20134;-66
2021/11/16 11:45:25;;;;;;;7.15;1.52;;;5.60;99.90;;;;;;5093002;28;20028;-66
2021/11/16 11:48:03;;;;;;;7.80;1.92;;;5.60;99.90;;;;;;5093066;28;20028;-66
2021/11/16 11:50:29;;;;;;;10.15;2.05;;;5.70;99.90;;;;;;5092912;28;20028;-66
2021/11/16 11:52:57;;;;;;;7.82;1.88;;;5.60;99.90;;;;;;5101418;28;20031;-66
2021/11/16 11:55:24;;;;;;;12.20;1.90;;;5.60;99.90;;;;;;5111648;28;20043;-66
2021/11/16 11:57:50;;;;;;;19.23;2.45;;;5.60;99.90;;;;;;5112956;28;20027;-66
2021/11/16 12:00:16;;;;;;;7.35;1.83;;;5.60;99.90;;;;;;5112896;28;20385;-66
2021/11/16 12:02:48;;;;;;;9.02;2.05;;;5.50;99.90;;;;;;5112480;28;20043;-66
2021/11/16 12:05:14;;;;;;;13.30;2.40;;;5.50;99.90;;;;;;5112936;28;20024;-65
2021/11/16 12:07:40;;;;;;;15.70;2.75;;;5.40;99.90;;;;;;5099030;28;20495;-66
2021/11/16 12:10:06;;;;;;;10.95;2.47;;;5.40;99.90;;;;;;5092794;28;20024;-66
2021/11/16 12:12:32;;;;;;;9.88;2.30;;;5.50;99.90;;;;;;5092489;28;20495;-65
2021/11/16 12:15:30;;;;;;;11.25;2.75;;;5.50;99.90;;;;;;5092398;28;20021;-66
2021/11/16 12:17:59;;;;;;;6.88;2.25;;;5.50;99.90;;;;;;5092260;28;20036;-66
2021/11/16 12:20:49;;;;;;;7.45;2.30;;;5.50;99.90;;;;;;5092300;28;20028;-66
2021/11/16 12:23:17;;;;;;;14.93;2.33;;;5.40;99.90;;;;;;5092379;28;20054;-66
2021/11/16 12:25:45;;;;;;;14.30;3.28;;;5.40;99.90;;;;;;5092214;28;20024;-66
2021/11/16 12:28:29;;;;;;;20.88;3.38;;;5.40;99.90;;;;;;5090995;28;20077;-66
2021/11/16 12:30:57;;;;;;;13.98;2.85;;;5.40;99.90;;;;;;5092414;28;20032;-66
2021/11/16 12:33:37;;;;;;;14.13;3.10;;;5.40;99.90;;;;;;5092252;28;20016;-66
2021/11/16 12:36:04;;;;;;;9.85;2.20;;;5.40;99.90;;;;;;5092163;28;20081;-66
2021/11/16 12:38:39;;;;;;;8.30;2.38;;;5.40;99.90;;;;;;5092091;28;20020;-66
2021/11/16 12:41:26;;;;;;;17.42;2.38;;;5.40;99.90;;;;;;5092130;28;20116;-66
2021/11/16 12:43:53;;;;;;;6.25;1.85;;;5.50;99.90;;;;;;5091975;28;20020;-66
2021/11/16 12:46:20;;;;;;;11.02;1.67;;;5.40;99.90;;;;;;5092148;28;20100;-66
2021/11/16 12:48:51;;;;;;;10.93;1.75;;;5.40;99.90;;;;;;5091964;28;20480;-66
2021/11/16 12:51:18;;;;;;;10.90;1.88;;;5.40;99.90;;;;;;5092051;28;20032;-66
2021/11/16 12:53:52;;;;;;;11.23;2.40;;;5.30;99.90;;;;;;5093170;28;20024;-66
2021/11/16 12:56:18;;;;;;;13.68;2.28;;;5.30;99.90;;;;;;5091921;28;20071;-66
2021/11/16 12:58:52;;;;;;;12.13;1.95;;;5.30;99.90;;;;;;5092177;28;20368;-65
2021/11/16 13:01:38;;;;;;;6.50;1.40;;;5.30;99.90;;;;;;5092246;28;20110;-66
2021/11/16 13:04:06;;;;;;;15.30;2.33;;;5.30;99.90;;;;;;5091898;28;20024;-66
2021/11/16 13:06:35;;;;;;;8.43;1.50;;;5.30;99.90;;;;;;5091887;28;20024;-66
2021/11/16 13:09:02;;;;;;;5.55;1.40;;;5.30;99.90;;;;;;5091651;28;20122;-66
2021/11/16 13:11:46;;;;;;;8.00;1.42;;;5.30;99.90;;;;;;5091580;28;20491;-67
2021/11/16 13:14:37;;;;;;;13.27;1.92;;;5.30;99.90;;;;;;5092063;28;20055;-66
2021/11/16 13:17:46;;;;;;;11.45;1.70;;;5.30;99.90;;;;;;5092739;28;20597;-66
2021/11/16 13:20:14;;;;;;;14.43;2.30;;;5.40;99.90;;;;;;5095688;28;20058;-66
2021/11/16 13:22:50;;;;;;;9.85;2.22;;;5.50;99.90;;;;;;5095598;28;20490;-66
2021/11/16 13:25:43;;;;;;;10.38;2.00;;;5.50;99.90;;;;;;5095853;28;20067;-66
2021/11/16 13:31:21;;;;;;;18.38;2.88;;;5.40;99.90;;;;;;5089674;28;20032;-66
2021/11/16 13:33:54;;;;;;;7.40;1.73;;;5.40;99.90;;;;;;5095219;28;20056;-66
2021/11/16 13:36:22;;;;;;;6.65;1.42;;;5.40;99.90;;;;;;5095809;28;20031;-66
2021/11/16 13:38:51;;;;;;;8.07;1.50;;;5.40;99.90;;;;;;5095508;28;20032;-66
2021/11/16 13:41:39;;;;;;;3.20;1.00;;;5.40;99.90;;;;;;5095371;28;20032;-66
2021/11/16 13:44:23;;;;;;;3.80;1.35;;;6.20;99.90;;;;;;5100900;28;20035;-65
2021/11/16 13:47:00;;;;;;;6.88;1.48;;;6.50;99.90;;;;;;5115677;28;20141;-65
2021/11/16 13:49:43;;;;;;;6.05;1.55;;;6.30;99.90;;;;;;5115645;28;20020;-65
2021/11/16 13:52:14;;;;;;;3.92;1.40;;;6.10;99.90;;;;;;5115096;28;20038;-65
2021/11/16 13:54:40;;;;;;;;;;;5.90;99.90;;;;;;5114104;28;20046;-65
2021/11/16 13:57:10;;;;;;;8.45;1.50;;;5.80;99.90;;;;;;5111294;28;19998;-65
2021/11/16 13:59:38;;;;;;;4.70;1.42;;;5.70;99.90;;;;;;5097647;28;20471;-65
2021/11/16 14:02:06;;;;;;;5.75;2.10;;;5.70;99.90;;;;;;5095028;28;20040;-65
2021/11/16 14:04:32;;;;;;;7.10;1.77;;;5.60;99.90;;;;;;5100283;28;20012;-65
2021/11/16 14:07:12;;;;;;;6.53;2.00;;;5.60;99.90;;;;;;5097226;28;20078;-65